Torreon, NM (87061)

11:15 PM MDT on September 30, 2016 (GMT -0600)
KNMESTAN2 | | Change Station

Elev 6299 ft 34.75 °N, 106.15 °W | Updated 6 minutes ago

Clear
Clear
55.7 °F
Feels Like 55.7 °F
N
4.0
Wind Variable Wind from West
Gusts 7.0 mph

Today
High -- | Low -- °F
--% Chance of Precip.
Yesterday
High -- | Low -- °F
Precip. -- in
Pressure 30.25 in
Visibility 10.0 miles
Clouds Clear
Dew Point 46 °F
Humidity 71%
Rainfall 0.00 in
Snow Depth Not available.
6:58 AM 6:49 PM
New Moon, 0% visible
METAR K0E0 010455Z AUTO 15005KT 10SM CLR 11/04 A3025 RMK AO2 T01100042
Pressure 30.25 in
Visibility 10.0 miles
Clouds Clear
Dew Point 46 °F
Humidity 71%
Rainfall 0.00 in
Snow Depth Not available.
6:58 AM 6:49 PM
New Moon, 0% visible
METAR K0E0 010455Z AUTO 15005KT 10SM CLR 11/04 A3025 RMK AO2 T01100042

10-Day Weather Forecast

Almanac

Astronomy

Sep. 30, 2016 Rise Set
Actual Time
Civil Twilight
Nautical Twilight
Astronomical Twilight
Moon
Length of Visible Light
Length of Day
Tomorrow will be .
, % of the Moon is Illuminated

Today's Extremes

State Highs State Lows

Community

WunderPhotos

Upload Photos

1,942,894 photos uploaded!

WunderBlog® & News

Nearby

Air Quality

  Air Quality AQ Index Pollutant
Not available.

Snow Depth

Station Depth Elevation

Earthquake Activity

City Distance Mag. Time & Date
Minimum magnitude displayed is 2.5.

Coastal Water Temperatures

Place Temperature

Stations

Nearby Weather Stations

Station Location Temp. Windchill Dew Point Humidity Wind Precip. Elev Updated Type
                   

Watches & Warnings

There are currently no watches in effect.